createdAt,value
2023-04-19T00:01:45.125Z,8.27
2023-04-19T00:05:48.972Z,7.80
2023-04-19T00:09:52.034Z,8.90
2023-04-19T00:13:55.124Z,9.48
2023-04-19T00:17:59.885Z,9.40
2023-04-19T00:22:03.074Z,10.13
2023-04-19T00:26:06.190Z,11.30
2023-04-19T00:30:10.021Z,10.70
2023-04-19T00:34:14.834Z,11.18
2023-04-19T00:38:18.356Z,9.70
2023-04-19T00:42:21.597Z,10.07
2023-04-19T00:46:25.656Z,10.57
2023-04-19T00:50:30.630Z,11.10
2023-04-19T00:54:34.452Z,10.45
2023-04-19T00:58:39.811Z,9.57
2023-04-19T01:02:43.474Z,11.02
2023-04-19T01:06:49.241Z,11.82
2023-04-19T01:10:52.337Z,11.35
2023-04-19T01:14:55.364Z,9.63
2023-04-19T01:18:58.429Z,12.05
2023-04-19T01:23:03.902Z,11.90
2023-04-19T01:27:07.012Z,9.85
2023-04-19T01:31:10.161Z,10.25
2023-04-19T01:35:13.406Z,12.25
2023-04-19T01:39:17.946Z,13.18
2023-04-19T01:43:20.983Z,11.75
2023-04-19T01:47:25.128Z,11.00
2023-04-19T01:51:28.205Z,12.73
2023-04-19T01:55:33.114Z,13.02
2023-04-19T01:59:36.282Z,12.30
2023-04-19T02:03:39.435Z,12.43
2023-04-19T02:07:42.708Z,13.73
2023-04-19T02:11:47.100Z,12.55
2023-04-19T02:15:50.549Z,12.60
2023-04-19T02:19:54.141Z,11.07
2023-04-19T02:23:57.187Z,13.15
2023-04-19T02:28:01.604Z,13.73
2023-04-19T02:32:06.203Z,13.95
2023-04-19T02:36:10.135Z,14.10
2023-04-19T02:40:13.351Z,15.10
2023-04-19T02:44:18.348Z,14.38
2023-04-19T02:48:21.592Z,13.30
2023-04-19T02:52:24.891Z,14.60
2023-04-19T02:56:27.989Z,13.23
2023-04-19T03:00:32.886Z,13.70
2023-04-19T03:04:43.617Z,14.80
2023-04-19T03:08:47.072Z,14.25
2023-04-19T03:12:50.905Z,14.63
2023-04-19T03:16:55.833Z,14.20
2023-04-19T03:20:59.154Z,16.85
2023-04-19T03:25:07.345Z,17.38
2023-04-19T03:29:12.150Z,14.23
2023-04-19T03:33:20.477Z,14.95
2023-04-19T03:37:24.178Z,17.00
2023-04-19T03:41:28.792Z,15.77
2023-04-19T03:45:49.819Z,13.52
2023-04-19T03:49:55.067Z,15.95
2023-04-19T03:53:58.436Z,17.85
2023-04-19T03:58:01.901Z,18.08
2023-04-19T04:02:16.907Z,17.42
2023-04-19T04:06:21.573Z,16.33
2023-04-19T04:10:25.167Z,18.95
2023-04-19T04:14:28.564Z,19.02
2023-04-19T04:18:32.195Z,18.95
2023-04-19T04:22:44.159Z,18.23
2023-04-19T04:26:51.561Z,17.25
2023-04-19T04:30:59.263Z,20.13
2023-04-19T04:35:07.042Z,18.08
2023-04-19T04:39:20.077Z,20.35
2023-04-19T04:43:24.457Z,19.30
2023-04-19T04:47:32.409Z,18.50
2023-04-19T04:51:39.034Z,20.27
2023-04-19T04:55:43.520Z,21.65
2023-04-19T04:59:49.139Z,19.95
2023-04-19T05:03:55.148Z,21.33
2023-04-19T05:07:58.632Z,21.60
2023-04-19T05:12:03.491Z,21.05
2023-04-19T05:16:07.609Z,19.27
2023-04-19T05:20:12.181Z,19.63
2023-04-19T05:24:15.634Z,21.60
2023-04-19T05:28:21.287Z,18.77
2023-04-19T05:32:47.431Z,18.40
2023-04-19T05:36:51.797Z,20.35
2023-04-19T05:40:55.612Z,19.95
2023-04-19T05:45:00.017Z,20.65
2023-04-19T05:49:04.343Z,20.48
2023-04-19T05:53:26.433Z,18.92
2023-04-19T05:57:30.146Z,19.00
2023-04-19T06:01:35.283Z,19.05
2023-04-19T06:05:40.547Z,19.50
2023-04-19T06:09:43.666Z,18.83
2023-04-19T06:13:47.431Z,18.70
2023-04-19T06:17:51.961Z,19.88
2023-04-19T06:21:55.400Z,20.33
2023-04-19T06:25:58.443Z,21.55
2023-04-19T06:30:01.714Z,19.58
2023-04-19T06:34:06.166Z,19.52
2023-04-19T06:38:09.206Z,19.98
2023-04-19T06:42:12.535Z,19.73
2023-04-19T06:46:15.915Z,20.15
2023-04-19T06:50:20.824Z,19.90
2023-04-19T06:54:23.865Z,20.30
2023-04-19T06:58:26.958Z,18.55
2023-04-19T07:02:30.103Z,21.38
2023-04-19T07:06:34.666Z,19.73
2023-04-19T07:10:37.755Z,20.05
2023-04-19T07:14:40.801Z,16.67
2023-04-19T07:18:44.495Z,19.02
2023-04-19T07:22:49.110Z,18.38
2023-04-19T07:26:52.084Z,14.85
2023-04-19T07:30:55.300Z,17.52
2023-04-19T07:34:58.446Z,15.88
2023-04-19T07:39:02.847Z,15.70
2023-04-19T07:43:06.750Z,17.90
2023-04-19T07:47:09.811Z,15.48
2023-04-19T07:51:13.585Z,16.00
2023-04-19T07:55:17.968Z,14.82
2023-04-19T07:59:21.041Z,15.77
2023-04-19T08:03:24.248Z,14.35
2023-04-19T08:07:27.441Z,15.63
2023-04-19T08:11:32.101Z,15.00
2023-04-19T08:19:41.682Z,14.85
2023-04-19T08:23:48.204Z,15.90
2023-04-19T08:27:52.991Z,13.48
2023-04-19T08:31:56.333Z,16.05
2023-04-19T08:35:59.406Z,15.15
2023-04-19T08:40:03.870Z,14.93
2023-04-19T08:44:08.755Z,16.20
2023-04-19T08:48:12.670Z,17.48
2023-04-19T08:52:16.693Z,21.40
2023-04-19T08:56:34.490Z,14.02
2023-04-19T09:00:41.368Z,15.98
2023-04-19T09:04:44.724Z,18.38
2023-04-19T09:08:47.987Z,21.52
2023-04-19T09:13:06.122Z,13.68
2023-04-19T09:17:18.373Z,11.40
2023-04-19T09:21:29.451Z,9.45
2023-04-19T09:25:47.163Z,9.00
2023-04-19T09:29:56.336Z,9.35
2023-04-19T09:34:14.219Z,8.15
2023-04-19T09:38:17.824Z,7.32
2023-04-19T09:42:42.384Z,4.25
2023-04-19T09:46:45.641Z,4.47
2023-04-19T09:51:02.377Z,3.92
2023-04-19T09:55:22.142Z,3.85
2023-04-19T09:59:28.852Z,5.95
2023-04-19T10:03:32.778Z,4.85
2023-04-19T10:07:38.328Z,4.63
2023-04-19T10:11:42.971Z,5.32
2023-04-19T10:15:52.685Z,6.70
2023-04-19T10:20:07.748Z,6.18
2023-04-19T10:24:14.763Z,4.97
2023-04-19T10:28:18.052Z,5.43
2023-04-19T10:32:21.174Z,5.97
2023-04-19T10:36:28.288Z,4.80
2023-04-19T10:40:59.110Z,6.13
2023-04-19T10:45:33.268Z,6.40
2023-04-19T10:49:46.143Z,6.45
2023-04-19T10:53:59.631Z,5.93
2023-04-19T10:58:05.716Z,5.82
2023-04-19T11:02:29.498Z,5.35
2023-04-19T11:06:33.200Z,6.13
2023-04-19T11:10:36.624Z,5.07
2023-04-19T11:14:43.051Z,4.75
2023-04-19T11:18:46.120Z,4.32
2023-04-19T11:22:49.289Z,5.35
2023-04-19T11:26:54.819Z,4.43
2023-04-19T11:31:00.197Z,4.90
2023-04-19T11:35:08.441Z,5.18
2023-04-19T11:39:12.130Z,4.80
2023-04-19T11:43:15.327Z,5.63
2023-04-19T11:47:20.888Z,5.65
2023-04-19T11:51:23.955Z,5.65
2023-04-19T11:55:27.398Z,5.63
2023-04-19T11:59:31.096Z,5.07
2023-04-19T12:03:36.896Z,5.85
2023-04-19T12:08:06.331Z,4.07
2023-04-19T12:12:09.406Z,3.42
2023-04-19T12:16:13.296Z,3.85
2023-04-19T12:20:31.643Z,4.07
2023-04-19T12:24:34.761Z,3.58
2023-04-19T12:28:37.835Z,3.38
2023-04-19T12:32:41.043Z,4.20
2023-04-19T12:36:45.488Z,4.43
2023-04-19T12:40:48.836Z,5.03
2023-04-19T12:44:51.901Z,4.35
2023-04-19T12:48:55.090Z,6.80
2023-04-19T12:52:59.589Z,6.63
2023-04-19T12:57:03.548Z,4.55
2023-04-19T13:01:07.324Z,4.10
2023-04-19T13:05:12.920Z,6.10
2023-04-19T13:09:17.825Z,4.25
2023-04-19T13:13:20.958Z,4.60
2023-04-19T13:17:23.991Z,8.93
2023-04-19T13:21:27.929Z,5.90
2023-04-19T13:25:32.474Z,5.43
2023-04-19T13:29:35.531Z,5.97
2023-04-19T13:33:38.598Z,5.72
2023-04-19T13:37:44.272Z,5.85
2023-04-19T13:41:48.958Z,4.95
2023-04-19T13:45:52.099Z,3.85
2023-04-19T13:49:55.110Z,4.03
2023-04-19T13:53:58.120Z,4.60
2023-04-19T13:58:02.522Z,6.40
2023-04-19T14:02:05.780Z,8.85
2023-04-19T14:06:09.016Z,4.80
2023-04-19T14:10:12.438Z,4.88
2023-04-19T14:14:17.454Z,5.10
2023-04-19T14:18:20.734Z,5.13
2023-04-19T14:22:23.753Z,8.30
2023-04-19T14:26:27.728Z,5.85
2023-04-19T14:30:32.283Z,4.30
2023-04-19T14:34:35.304Z,4.95
2023-04-19T14:38:38.266Z,3.95
2023-04-19T14:42:41.668Z,3.83
2023-04-19T14:46:46.564Z,5.00
2023-04-19T14:50:49.872Z,4.07
2023-04-19T14:54:52.851Z,3.80
2023-04-19T14:58:55.989Z,3.90
2023-04-19T15:03:01.296Z,4.60
2023-04-19T15:07:04.862Z,4.63
2023-04-19T15:11:07.889Z,3.28
2023-04-19T15:15:11.697Z,4.22
2023-04-19T15:19:16.862Z,4.38
2023-04-19T15:23:22.204Z,3.42
2023-04-19T15:27:25.295Z,3.65
2023-04-19T15:31:28.304Z,4.00
2023-04-19T15:35:33.398Z,4.50
2023-04-19T15:39:36.415Z,4.22
2023-04-19T15:43:39.774Z,3.05
2023-04-19T15:47:42.913Z,4.88
2023-04-19T15:51:47.368Z,4.95
2023-04-19T15:55:50.514Z,6.32
2023-04-19T15:59:53.572Z,3.78
2023-04-19T16:03:56.749Z,4.28
2023-04-19T16:08:04.961Z,3.50
2023-04-19T16:12:08.302Z,5.25
2023-04-19T16:16:11.350Z,3.28
2023-04-19T16:20:14.494Z,3.38
2023-04-19T16:24:19.030Z,3.22
2023-04-19T16:28:22.167Z,21.48
2023-04-19T16:32:25.281Z,5.70
2023-04-19T16:36:28.537Z,4.53
2023-04-19T16:40:33.204Z,3.33
2023-04-19T16:44:36.690Z,4.15
2023-04-19T16:48:39.812Z,3.40
2023-04-19T16:52:42.863Z,3.53
2023-04-19T16:56:47.361Z,3.25
2023-04-19T17:00:50.459Z,4.40
2023-04-19T17:04:53.834Z,3.65
2023-04-19T17:08:57.046Z,3.60
2023-04-19T17:13:01.562Z,3.95
2023-04-19T17:17:04.704Z,4.20
2023-04-19T17:21:07.729Z,4.15
2023-04-19T17:25:11.074Z,5.55
2023-04-19T17:29:15.777Z,4.13
2023-04-19T17:33:18.893Z,5.03
2023-04-19T17:37:22.128Z,19.00
2023-04-19T17:41:25.234Z,5.07
2023-04-19T17:45:29.924Z,6.47
2023-04-19T17:49:32.995Z,3.20
2023-04-19T17:53:36.135Z,4.55
2023-04-19T17:57:39.174Z,4.68
2023-04-19T18:01:43.602Z,4.50
2023-04-19T18:05:46.694Z,4.90
2023-04-19T18:09:49.699Z,5.38
2023-04-19T18:13:52.870Z,5.32
2023-04-19T18:17:57.339Z,5.03
2023-04-19T18:22:01.417Z,5.50
2023-04-19T18:26:05.103Z,5.93
2023-04-19T18:30:09.181Z,24.25
2023-04-19T18:34:13.894Z,7.03
2023-04-19T18:38:16.974Z,5.60
2023-04-19T18:42:20.173Z,4.22
2023-04-19T18:46:24.247Z,5.00
2023-04-19T18:50:28.814Z,4.15
2023-04-19T18:54:31.816Z,3.53
2023-04-19T18:58:34.835Z,4.70
2023-04-19T19:02:40.450Z,7.85
2023-04-19T19:06:45.572Z,4.32
2023-04-19T19:11:13.791Z,4.38
2023-04-19T19:15:11.962Z,4.47
2023-04-19T19:19:15.303Z,5.35
2023-04-19T19:23:20.491Z,4.32
2023-04-19T19:27:29.314Z,5.05
2023-04-19T19:31:32.326Z,5.15
2023-04-19T19:35:35.982Z,5.65
2023-04-19T19:39:40.605Z,4.07
2023-04-19T19:43:45.201Z,4.60
2023-04-19T19:47:49.960Z,4.93
2023-04-19T19:51:58.483Z,4.43
2023-04-19T19:56:04.292Z,5.18
2023-04-19T20:04:17.260Z,4.90
2023-04-19T20:08:20.413Z,4.30
2023-04-19T20:12:24.862Z,4.70
2023-04-19T20:16:29.090Z,4.25
2023-04-19T20:20:32.250Z,4.35
2023-04-19T20:24:35.260Z,5.05
2023-04-19T20:28:39.635Z,3.92
2023-04-19T20:32:43.307Z,4.47
2023-04-19T20:36:47.271Z,4.07
2023-04-19T20:40:50.702Z,3.72
2023-04-19T20:44:55.106Z,4.25
2023-04-19T20:48:58.217Z,4.15
2023-04-19T20:53:01.383Z,4.45
2023-04-19T20:57:04.861Z,5.53
2023-04-19T21:01:10.084Z,5.47
2023-04-19T21:05:13.212Z,5.45
2023-04-19T21:09:16.495Z,5.68
2023-04-19T21:13:19.721Z,7.65
2023-04-19T21:17:24.401Z,5.15
2023-04-19T21:21:28.065Z,6.40
2023-04-19T21:25:31.192Z,5.95
2023-04-19T21:29:34.614Z,6.70
2023-04-19T21:33:39.080Z,5.68
2023-04-19T21:37:42.129Z,6.60
2023-04-19T21:41:45.186Z,6.03
2023-04-19T21:45:48.222Z,7.45
2023-04-19T21:49:53.348Z,7.25
2023-04-19T21:53:56.461Z,6.25
2023-04-19T21:57:59.763Z,4.68
2023-04-19T22:02:03.159Z,7.18
2023-04-19T22:06:08.546Z,7.07
2023-04-19T22:10:13.766Z,5.93
2023-04-19T22:14:17.646Z,7.65
2023-04-19T22:18:20.893Z,5.90
2023-04-19T22:22:25.510Z,6.90
2023-04-19T22:26:29.352Z,6.70
2023-04-19T22:30:32.432Z,7.20
2023-04-19T22:34:36.531Z,5.85
2023-04-19T22:38:40.962Z,7.85
2023-04-19T22:42:44.069Z,7.13
2023-04-19T22:46:47.340Z,6.43
2023-04-19T22:50:52.528Z,6.85
2023-04-19T22:54:57.025Z,7.57
2023-04-19T22:59:00.095Z,7.75
2023-04-19T23:03:03.651Z,6.00
2023-04-19T23:07:07.075Z,4.45
2023-04-19T23:11:11.492Z,5.90
2023-04-19T23:15:14.837Z,5.65
2023-04-19T23:19:18.201Z,6.55
2023-04-19T23:23:21.504Z,6.35
2023-04-19T23:27:26.598Z,6.82
2023-04-19T23:31:29.714Z,7.93
2023-04-19T23:35:32.816Z,6.03
2023-04-19T23:39:35.926Z,6.78
2023-04-19T23:43:40.499Z,6.28
2023-04-19T23:47:43.583Z,6.82
2023-04-19T23:51:48.889Z,7.80
2023-04-19T23:55:51.970Z,6.82
2023-04-19T23:59:56.454Z,6.88
